McDonogh Run, Maryland
Current Conditions -  °F | °C
As of 10:04 AM on Monday 24 Nov 2014 (Local Time) from KBWI Reporting Station
Broken Clouds Broken Clouds  
Wind Chill: 66°   Ceiling: 2600
Heat Index: 66°   Visibility: 10mi
Dew Point: 57°   Wind: 15mph
Humidity: 73%   Direction: 200°SSW
Pressure: 29.68"   Gusts: 25mph
Location:  39.3744°N, 76.8156°W
Report Text: KBWI 241504Z 20013G22KT 10SM BKN026 19/14 A2968 RMK AO2
Loading
Personal Weather Stations






























Interactive Weather Map New forecast layout! Learn more

10-Day Weather Forecast

Advertisements
Track Severe Weather on mobile